Pagrindinis puslapis
METAR-TAF:

METAR-TAF

Oro uostai :

Kolda, Senegalas

platuma: 12-53N, ilguma: 014-58W, Aukštis: 10 m

Dabartinis oras

Ataskaita buvo paskelbta 2 valandos ir 5 minutes, ne 00:00 UTC
Vėjas 2 kt nuo kintamojo kryptimis
Temperatūra 26°C
Drėgmė 89%
Slėgis 1013 hPa
Matomumas: 8000 m
Su prošvaistėmis ne aukštis 2000 ft, aukštai iškilę kamuoliniai debesys.

METAR: GOGK 150000Z VRB02KT 8000 BKN020TCU 26/24 Q1013

Laikas: 02:05 (02:05 UTC)


TAF: trūkstamas

Orai ataskaitas ir orų prognozės (METAR, TAF).

turimą stotys yra geltonos ir raudonos taškus žemėlapyje.

Perkelti pele per norėdami pamatyti stoties vardą.

Tada spustelėkite, norėdami matyti oro stebėjimo ir prognozės.

Norėdami pakeisti žemėlapį: spustelėkite ant žalios mygtukų su juodo kryžiaus žemyn,; žalią mygtuką su brūkšneliu, jei norite nutolinti; arba žalių rodyklių gretimoms žemėlapius.


METAR-TAF: